Date,TemperatureHighF,TemperatureAvgF,TemperatureLowF,DewpointHighF,DewpointAvgF,DewpointLowF,HumidityHigh,HumidityAvg,HumidityLow,PressureMaxIn,PressureMinIn,WindSpeedMaxMPH,WindSpeedAvgMPH,GustSpeedMaxMPH,PrecipitationSumIn
2013-1-1,30.0,24.9,19.0,26.5,17.5,-16.4,87,74,11,28.71,28.61,7,2,47,17.61
2013-1-2,24.3,19.7,17.2,12.3,9.3,6.8,69,64,58,28.85,28.67,5,1,8,0.00
2013-1-3,27.5,24.0,14.4,18.5,13.4,6.5,73,64,47,28.82,28.69,8,3,12,0.00
2013-1-4,33.6,26.5,23.9,18.6,14.4,10.7,74,60,45,28.84,28.69,11,4,18,0.00
2013-1-5,33.3,28.2,24.3,22.1,18.5,13.7,73,67,57,28.99,28.75,6,1,11,0.00
2013-1-6,36.0,32.7,30.4,29.7,26.5,21.2,89,78,64,28.82,28.60,8,2,11,0.03
2013-1-7,34.3,28.8,21.0,28.1,22.1,16.1,89,76,62,29.06,28.82,7,1,11,0.01
2013-1-8,45.7,26.6,14.9,25.2,17.4,10.1,85,70,39,28.97,28.88,4,0,7,0.10
2013-1-9,49.5,36.9,25.2,35.5,26.8,11.8,86,67,51,29.09,28.77,8,2,16,0.07
2013-1-10,43.5,31.5,19.0,30.1,22.6,14.2,89,71,50,29.24,28.95,4,0,8,0.00
2013-1-11,45.9,41.9,38.3,44.5,34.9,21.7,98,78,49,28.95,28.56,8,2,11,0.36
2013-1-12,60.4,49.7,43.7,53.6,47.8,43.2,99,94,74,28.72,28.62,6,1,10,0.00
2013-1-13,69.6,57.2,50.2,56.3,52.6,48.1,99,86,61,28.62,28.47,10,2,15,0.07
2013-1-14,53.8,30.9,25.9,52.9,24.3,16.4,97,77,61,29.07,28.55,11,1,15,0.02
2013-1-15,34.2,27.4,25.0,18.5,15.9,12.7,72,62,46,29.04,28.75,4,0,5,0.00
2013-1-16,35.6,30.9,27.5,28.1,22.3,16.7,80,70,59,28.76,28.50,8,1,17,0.00
2013-1-17,34.9,31.3,27.5,25.4,21.8,17.3,78,68,52,28.79,28.60,7,2,11,0.00
2013-1-18,30.6,25.6,16.2,13.2,9.4,2.1,56,50,42,29.08,28.77,8,3,14,0.00
2013-1-19,52.7,41.2,30.4,26.0,19.4,12.9,51,42,32,28.78,28.37,11,4,19,0.00
2013-1-20,45.3,28.0,19.2,28.9,14.1,4.2,75,56,42,28.77,28.32,14,5,25,0.00
2013-1-21,22.6,16.7,9.7,11.4,5.5,-2.7,72,61,40,28.72,28.52,9,3,15,0.00
2013-1-22,9.7,6.0,3.9,0.3,-4.5,-10.2,66,60,48,28.83,28.61,11,4,21,0.00
2013-1-23,14.7,7.4,2.5,-0.3,-3.7,-5.9,67,59,43,28.84,28.67,6,2,11,0.00
2013-1-24,23.0,9.4,-2.9,5.7,-3.4,-12.3,70,56,26,29.15,28.66,8,1,11,0.00
2013-1-25,18.0,9.7,-2.7,5.8,-0.4,-12.1,70,62,51,29.12,28.64,4,1,6,0.00
2013-1-26,29.7,19.4,13.1,17.3,11.0,5.5,79,70,52,29.06,28.69,4,0,7,0.00
2013-1-27,35.8,23.6,14.0,15.7,10.9,7.6,77,60,35,29.14,28.96,4,1,8,0.00
2013-1-28,44.2,36.9,25.7,43.5,34.9,16.3,99,92,65,28.96,28.59,8,2,16,0.50
2013-1-29,57.4,47.1,35.4,53.7,46.1,34.6,99,96,77,28.71,28.42,6,1,13,0.12
2013-1-30,61.3,56.2,42.3,55.6,50.4,30.8,95,81,67,28.75,27.85,12,3,25,1.01
2013-1-31,41.5,26.8,19.6,36.8,19.0,6.7,88,73,46,28.39,27.90,16,1,24,0.10